Time;durP1;ratioP1;P1;durP2;ratioP2;P2;SDS_P1;SDS_P2;PMS_P1;PMS_P2;Temp;Humidity;BMP_temperature;BMP_pressure;BME280_temperature;BME280_humidity;BME280_pressure;Samples;Min_cycle;Max_cycle;Signal;HPM_P1;HPM_P2
2022/02/05 00:00:32;;;;;;;12.15;7.50;;;;;;;;;;5096721;28;20034;-71
2022/02/05 00:13:49;;;;;;;15.25;8.48;;;;;;;;;;5096357;28;20044;-70
2022/02/05 00:38:19;;;;;;;10.80;6.97;;;;;;;;;;5094990;28;20081;-70
2022/02/05 00:43:12;;;;;;;13.00;7.47;;;;;;;;;;5096328;28;20050;-70
2022/02/05 00:45:41;;;;;;;11.18;7.75;;;;;;;;;;5096070;28;20028;-71
2022/02/05 00:48:07;;;;;;;13.55;7.97;;;;;;;;;;5095620;28;20031;-72
2022/02/05 00:50:36;;;;;;;10.52;5.68;;;;;;;;;;5094522;28;20031;-71
2022/02/05 00:53:07;;;;;;;10.38;6.88;;;;;;;;;;5077390;28;20020;-71
2022/02/05 00:55:36;;;;;;;12.40;7.30;;;;;;;;;;5095835;28;20024;-70
2022/02/05 00:58:03;;;;;;;10.40;6.45;;;;;;;;;;5095750;28;20061;-70
2022/02/05 01:00:29;;;;;;;8.25;5.63;;;;;;;;;;5095895;28;20076;-71
2022/02/05 01:03:02;;;;;;;9.25;6.07;;;;;;;;;;5094726;28;20173;-70
2022/02/05 01:05:42;;;;;;;8.25;5.72;;;;;;;;;;5094213;28;20032;-70
2022/02/05 01:08:13;;;;;;;8.80;5.07;;;;;;;;;;5094592;28;20035;-70
2022/02/05 01:10:39;;;;;;;8.77;5.25;;;;;;;;;;5095223;28;20020;-70
2022/02/05 01:13:09;;;;;;;5.95;3.85;;;;;;;;;;5094721;28;20047;-71
2022/02/05 01:15:42;;;;;;;6.35;4.93;;;;;;;;;;5094487;28;20028;-71
2022/02/05 01:18:10;;;;;;;8.73;5.95;;;;;;;;;;5095552;28;20551;-71
2022/02/05 01:23:10;;;;;;;6.55;5.25;;;;;;;;;;5095219;28;20105;-71
2022/02/05 01:25:41;;;;;;;7.22;5.15;;;;;;;;;;5095474;28;20462;-70
2022/02/05 01:28:13;;;;;;;5.68;4.95;;;;;;;;;;5093692;28;20028;-71
2022/02/05 01:30:43;;;;;;;5.70;4.60;;;;;;;;;;5095482;28;20044;-71
2022/02/05 01:33:27;;;;;;;6.53;4.93;;;;;;;;;;5095167;28;20484;-71
2022/02/05 01:36:23;;;;;;;8.20;5.32;;;;;;;;;;5095241;28;20038;-71
2022/02/05 01:50:34;;;;;;;7.72;5.07;;;;;;;;;;5093480;28;20086;-71
2022/02/05 01:55:58;;;;;;;4.43;3.97;;;;;;;;;;5094660;28;20024;-71
2022/02/05 01:58:41;;;;;;;5.60;4.35;;;;;;;;;;5094801;28;20443;-70
2022/02/05 02:12:01;;;;;;;6.15;4.38;;;;;;;;;;5094286;28;20036;-71
2022/02/05 02:22:00;;;;;;;8.82;4.75;;;;;;;;;;5072221;28;20047;-71
2022/02/05 02:30:28;;;;;;;5.07;4.28;;;;;;;;;;5074251;28;20029;-70
2022/02/05 02:32:20;;;;;;;4.32;3.88;;;;;;;;;;5068473;28;20135;-70
2022/02/05 02:34:50;;;;;;;4.85;4.35;;;;;;;;;;5073722;28;20355;-70
2022/02/05 02:37:25;;;;;;;5.10;3.90;;;;;;;;;;5074245;28;20024;-70
2022/02/05 02:40:20;;;;;;;4.93;4.40;;;;;;;;;;5072380;28;20024;-70
2022/02/05 02:42:49;;;;;;;3.42;3.13;;;;;;;;;;5074079;28;20040;-70
2022/02/05 02:45:15;;;;;;;6.13;4.82;;;;;;;;;;5073444;28;20017;-70
2022/02/05 02:47:43;;;;;;;3.17;2.90;;;;;;;;;;5073342;28;20031;-70
2022/02/05 02:50:16;;;;;;;6.00;4.32;;;;;;;;;;5073694;28;20032;-71
2022/02/05 02:58:16;;;;;;;3.88;3.53;;;;;;;;;;5073792;28;20112;-71
2022/02/05 03:00:42;;;;;;;6.28;4.53;;;;;;;;;;5072436;28;20029;-70
2022/02/05 03:03:07;;;;;;;5.72;4.20;;;;;;;;;;5073546;28;20016;-70
2022/02/05 03:05:33;;;;;;;5.28;3.60;;;;;;;;;;5073368;28;20494;-71
2022/02/05 03:07:58;;;;;;;4.32;3.92;;;;;;;;;;5073435;28;20505;-71
2022/02/05 03:10:24;;;;;;;4.07;3.50;;;;;;;;;;5073225;28;20494;-71
2022/02/05 03:12:49;;;;;;;4.53;4.07;;;;;;;;;;5080892;28;20470;-71
2022/02/05 03:15:19;;;;;;;4.72;4.15;;;;;;;;;;5091981;28;20123;-71
2022/02/05 03:18:02;;;;;;;4.72;4.30;;;;;;;;;;5092312;28;20039;-70
2022/02/05 03:20:29;;;;;;;4.15;3.80;;;;;;;;;;5092055;28;20024;-70
2022/02/05 03:22:54;;;;;;;4.20;3.80;;;;;;;;;;5091964;28;20020;-70
2022/02/05 03:25:20;;;;;;;3.65;2.45;;;;;;;;;;5093170;28;20062;-71
2022/02/05 03:27:45;;;;;;;4.57;4.05;;;;;;;;;;5092257;28;20024;-70
2022/02/05 03:30:11;;;;;;;3.97;3.50;;;;;;;;;;5092656;28;20032;-71
2022/02/05 03:32:37;;;;;;;6.35;3.95;;;;;;;;;;5092228;28;20027;-71
2022/02/05 03:35:02;;;;;;;3.65;3.30;;;;;;;;;;5094804;28;20496;-71
2022/02/05 03:37:28;;;;;;;3.97;3.60;;;;;;;;;;5097319;28;20099;-71
2022/02/05 03:39:53;;;;;;;5.00;3.28;;;;;;;;;;5096033;28;20055;-71
2022/02/05 03:42:19;;;;;;;4.70;3.95;;;;;;;;;;5097194;28;20031;-71
2022/02/05 03:44:44;;;;;;;3.95;3.55;;;;;;;;;;5097043;28;20194;-71
2022/02/05 03:47:10;;;;;;;4.32;3.92;;;;;;;;;;5097445;28;20024;-71
2022/02/05 03:49:36;;;;;;;4.13;3.72;;;;;;;;;;5097468;28;20035;-71
2022/02/05 03:52:02;;;;;;;3.47;3.15;;;;;;;;;;5097485;28;20024;-71
2022/02/05 03:54:30;;;;;;;4.28;3.88;;;;;;;;;;5095872;28;20366;-71
2022/02/05 03:56:55;;;;;;;5.15;3.30;;;;;;;;;;5096860;28;20047;-71
2022/02/05 03:59:21;;;;;;;4.63;2.67;;;;;;;;;;5095512;28;20059;-71
2022/02/05 04:01:46;;;;;;;3.40;3.13;;;;;;;;;;5095904;28;20024;-71
2022/02/05 04:04:12;;;;;;;3.03;2.78;;;;;;;;;;5096965;28;20073;-70
2022/02/05 04:06:37;;;;;;;4.28;3.85;;;;;;;;;;5097025;28;20012;-70
2022/02/05 04:09:09;;;;;;;3.85;3.55;;;;;;;;;;5097440;28;20375;-70
2022/02/05 04:11:56;;;;;;;3.80;3.50;;;;;;;;;;5095641;28;20032;-70
2022/02/05 04:17:05;;;;;;;4.32;3.80;;;;;;;;;;5097059;28;20047;-70
2022/02/05 04:19:31;;;;;;;4.47;4.07;;;;;;;;;;5096839;28;20442;-71
2022/02/05 04:21:57;;;;;;;5.53;4.43;;;;;;;;;;5095154;28;20024;-72
2022/02/05 04:24:22;;;;;;;4.28;3.88;;;;;;;;;;5096221;28;20020;-72
2022/02/05 04:26:48;;;;;;;5.13;3.83;;;;;;;;;;5095444;28;20461;-71
2022/02/05 04:29:13;;;;;;;4.93;4.32;;;;;;;;;;5096428;28;20355;-71
2022/02/05 04:31:39;;;;;;;6.18;4.22;;;;;;;;;;5096467;28;20048;-71
2022/02/05 04:34:06;;;;;;;4.28;2.38;;;;;;;;;;5095273;28;20056;-73
2022/02/05 04:36:33;;;;;;;11.98;8.00;;;;;;;;;;5094739;28;20523;-72
2022/02/05 04:39:05;;;;;;;3.22;2.92;;;;;;;;;;5096249;28;20458;-71
2022/02/05 04:41:39;;;;;;;2.50;2.30;;;;;;;;;;5095128;28;20036;-71
2022/02/05 04:57:12;;;;;;;1.85;1.75;;;;;;;;;;5096183;28;20028;-70
2022/02/05 05:04:54;;;;;;;1.45;1.25;;;;;;;;;;5095661;28;20111;-70
2022/02/05 05:15:31;;;;;;;1.85;1.10;;;;;;;;;;5095587;28;20055;-70
2022/02/05 05:20:51;;;;;;;1.30;1.20;;;;;;;;;;5094058;28;20386;-71
2022/02/05 05:23:17;;;;;;;1.40;1.17;;;;;;;;;;5095522;28;20028;-71
2022/02/05 05:25:42;;;;;;;1.42;1.33;;;;;;;;;;5095180;28;20100;-71
2022/02/05 05:28:09;;;;;;;1.10;1.00;;;;;;;;;;5095339;28;20142;-71
2022/02/05 05:30:34;;;;;;;1.00;1.00;;;;;;;;;;5095255;28;20043;-71
2022/02/05 05:33:00;;;;;;;1.10;1.00;;;;;;;;;;5095267;28;20462;-71
2022/02/05 05:35:25;;;;;;;1.10;1.00;;;;;;;;;;5095065;28;20024;-71
2022/02/05 05:37:51;;;;;;;1.30;0.90;;;;;;;;;;5095237;28;20073;-70
2022/02/05 05:40:17;;;;;;;1.23;0.90;;;;;;;;;;5094994;28;20043;-70
2022/02/05 05:42:48;;;;;;;1.08;1.00;;;;;;;;;;5093867;28;20020;-70
2022/02/05 05:45:34;;;;;;;1.30;1.20;;;;;;;;;;5094675;28;20027;-70
2022/02/05 05:53:10;;;;;;;1.67;1.02;;;;;;;;;;5093369;28;20411;-70
2022/02/05 05:55:38;;;;;;;1.08;0.98;;;;;;;;;;5094602;28;20024;-70
2022/02/05 05:58:04;;;;;;;0.90;0.90;;;;;;;;;;5093565;28;20036;-70
2022/02/05 06:00:29;;;;;;;1.05;0.98;;;;;;;;;;5093563;28;20032;-70
2022/02/05 06:02:56;;;;;;;1.70;0.88;;;;;;;;;;5093082;28;20031;-71
2022/02/05 06:05:21;;;;;;;1.70;1.02;;;;;;;;;;5092832;28;20099;-71
2022/02/05 06:07:47;;;;;;;2.13;1.20;;;;;;;;;;5092864;28;20119;-70
2022/02/05 06:10:12;;;;;;;2.65;1.33;;;;;;;;;;5092723;28;20452;-70
2022/02/05 06:12:38;;;;;;;1.50;1.30;;;;;;;;;;5091122;28;20044;-70
2022/02/05 06:15:07;;;;;;;1.20;1.08;;;;;;;;;;5092561;28;20363;-70
2022/02/05 06:17:32;;;;;;;2.15;0.80;;;;;;;;;;5091983;28;20016;-71
2022/02/05 06:19:58;;;;;;;1.73;0.90;;;;;;;;;;5093148;28;20103;-71
2022/02/05 06:22:24;;;;;;;1.17;0.80;;;;;;;;;;5092368;28;20363;-70
2022/02/05 06:24:49;;;;;;;0.80;0.80;;;;;;;;;;5092581;28;20054;-71
2022/02/05 06:27:15;;;;;;;1.17;0.70;;;;;;;;;;5091629;28;20414;-71
2022/02/05 06:29:40;;;;;;;1.77;0.98;;;;;;;;;;5092209;28;20036;-71
2022/02/05 06:32:06;;;;;;;1.20;1.10;;;;;;;;;;5092249;28;20099;-71
2022/02/05 06:34:31;;;;;;;1.33;0.80;;;;;;;;;;5092131;28;20016;-71
2022/02/05 06:36:57;;;;;;;1.27;1.10;;;;;;;;;;5092444;28;20008;-71
2022/02/05 06:39:23;;;;;;;2.33;0.90;;;;;;;;;;5091306;28;20078;-70
2022/02/05 06:41:48;;;;;;;1.45;1.15;;;;;;;;;;5092212;28;20028;-71
2022/02/05 06:44:16;;;;;;;2.25;1.35;;;;;;;;;;5093969;28;20398;-71
2022/02/05 06:46:42;;;;;;;1.20;1.10;;;;;;;;;;5093435;28;20012;-71
2022/02/05 06:49:07;;;;;;;1.75;1.48;;;;;;;;;;5093737;28;20066;-71
2022/02/05 06:51:33;;;;;;;1.10;1.00;;;;;;;;;;5093229;28;20020;-71
2022/02/05 06:53:58;;;;;;;3.28;1.27;;;;;;;;;;5090681;28;20031;-71
2022/02/05 06:56:24;;;;;;;2.22;1.10;;;;;;;;;;5091466;28;20034;-71
2022/02/05 06:58:50;;;;;;;1.23;1.13;;;;;;;;;;5093591;28;20373;-70
2022/02/05 07:01:15;;;;;;;1.75;1.50;;;;;;;;;;5093572;28;20016;-71
2022/02/05 07:03:41;;;;;;;2.28;1.70;;;;;;;;;;5093546;28;20111;-71
2022/02/05 07:06:06;;;;;;;3.67;1.20;;;;;;;;;;5093391;28;20020;-72
2022/02/05 07:08:32;;;;;;;1.92;1.60;;;;;;;;;;5092318;28;20032;-72
2022/02/05 07:10:58;;;;;;;2.67;1.27;;;;;;;;;;5092241;28;20036;-71
2022/02/05 07:13:24;;;;;;;1.48;1.15;;;;;;;;;;5092807;28;20043;-71
2022/02/05 07:18:43;;;;;;;3.05;1.60;;;;;;;;;;5093463;28;20020;-71
2022/02/05 07:21:08;;;;;;;1.50;1.40;;;;;;;;;;5093291;28;20028;-71
2022/02/05 07:31:40;;;;;;;1.85;1.30;;;;;;;;;;5090427;28;20032;-72
2022/02/05 07:34:06;;;;;;;1.48;1.27;;;;;;;;;;5074934;28;20449;-71
2022/02/05 07:36:32;;;;;;;1.40;1.30;;;;;;;;;;5092254;28;20031;-71
2022/02/05 07:38:58;;;;;;;1.80;1.33;;;;;;;;;;5093348;28;20012;-71
2022/02/05 07:41:23;;;;;;;1.67;1.25;;;;;;;;;;5093361;28;20028;-71
2022/02/05 07:43:49;;;;;;;1.40;1.30;;;;;;;;;;5093540;28;20035;-72
2022/02/05 07:46:14;;;;;;;1.67;1.27;;;;;;;;;;5093298;28;20060;-72
2022/02/05 07:48:40;;;;;;;1.88;1.52;;;;;;;;;;5091412;28;20061;-72
2022/02/05 07:51:07;;;;;;;1.08;0.98;;;;;;;;;;5090101;28;20028;-72
2022/02/05 07:53:33;;;;;;;1.85;1.10;;;;;;;;;;5091147;28;20020;-71
2022/02/05 07:55:58;;;;;;;1.55;1.25;;;;;;;;;;5091918;28;20390;-72
2022/02/05 07:58:24;;;;;;;1.92;1.42;;;;;;;;;;5091448;28;20026;-72
2022/02/05 08:00:52;;;;;;;3.00;1.17;;;;;;;;;;5092757;28;20428;-76
2022/02/05 08:03:24;;;;;;;1.40;0.95;;;;;;;;;;5091655;28;20019;-76
2022/02/05 08:05:51;;;;;;;2.70;1.27;;;;;;;;;;5092991;28;20044;-75
2022/02/05 08:08:22;;;;;;;1.60;0.98;;;;;;;;;;5092832;28;20027;-75
2022/02/05 08:10:54;;;;;;;1.95;1.02;;;;;;;;;;5092011;28;20032;-73
2022/02/05 08:13:22;;;;;;;2.83;1.25;;;;;;;;;;5089483;28;20109;-73
2022/02/05 08:15:53;;;;;;;2.40;1.27;;;;;;;;;;5053816;28;20021;-73
2022/02/05 08:18:18;;;;;;;;;;;;;;;;;;5071875;28;20040;-73
2022/02/05 08:20:44;;;;;;;2.92;0.80;;;;;;;;;;5075141;28;20042;-73
2022/02/05 08:23:10;;;;;;;0.50;0.47;;;;;;;;;;5093589;28;20371;-73
2022/02/05 08:25:36;;;;;;;1.92;1.05;;;;;;;;;;5096458;28;20024;-73
2022/02/05 08:28:03;;;;;;;1.83;0.90;;;;;;;;;;5096438;28;20504;-73
2022/02/05 08:30:29;;;;;;;1.45;0.98;;;;;;;;;;5096546;28;20111;-73
2022/02/05 08:32:57;;;;;;;2.95;1.48;;;;;;;;;;5095613;28;20032;-73
2022/02/05 08:35:23;;;;;;;3.95;1.35;;;;;;;;;;5096862;28;20034;-73
2022/02/05 08:37:49;;;;;;;3.63;1.52;;;;;;;;;;5096157;28;20024;-73
2022/02/05 08:40:17;;;;;;;2.72;1.70;;;;;;;;;;5095407;28;20016;-74
2022/02/05 08:42:43;;;;;;;3.00;1.52;;;;;;;;;;5095498;28;20024;-73
2022/02/05 08:45:09;;;;;;;5.88;2.20;;;;;;;;;;5096024;28;20474;-73
2022/02/05 08:47:35;;;;;;;2.47;1.42;;;;;;;;;;5096267;28;20032;-73
2022/02/05 08:50:00;;;;;;;2.28;1.63;;;;;;;;;;5095824;28;20020;-73
2022/02/05 08:52:27;;;;;;;2.35;1.58;;;;;;;;;;5095208;28;20035;-72
2022/02/05 08:54:54;;;;;;;2.47;1.60;;;;;;;;;;5094721;28;20019;-72
2022/02/05 08:57:20;;;;;;;3.03;1.70;;;;;;;;;;5094958;28;20037;-72
2022/02/05 09:02:18;;;;;;;2.15;1.10;;;;;;;;;;5095757;28;20043;-72
2022/02/05 09:07:13;;;;;;;3.88;1.77;;;;;;;;;;5094240;28;20397;-72
2022/02/05 09:09:58;;;;;;;3.00;1.75;;;;;;;;;;5095633;28;20028;-72
2022/02/05 09:12:43;;;;;;;2.47;1.60;;;;;;;;;;5095151;28;20094;-72
2022/02/05 09:15:09;;;;;;;2.47;1.70;;;;;;;;;;5095685;28;20063;-72
2022/02/05 09:17:35;;;;;;;2.40;1.40;;;;;;;;;;5095160;28;20058;-72
2022/02/05 09:20:00;;;;;;;2.88;1.70;;;;;;;;;;5091730;28;20103;-72
2022/02/05 09:22:30;;;;;;;1.92;1.25;;;;;;;;;;5093776;28;20462;-72
2022/02/05 09:24:58;;;;;;;2.08;0.90;;;;;;;;;;5094343;28;20085;-72
2022/02/05 09:27:25;;;;;;;2.35;1.60;;;;;;;;;;5095546;28;20027;-72
2022/02/05 09:30:03;;;;;;;1.90;1.10;;;;;;;;;;5095439;28;20442;-72
2022/02/05 09:32:29;;;;;;;3.25;1.38;;;;;;;;;;5095314;28;20028;-72
2022/02/05 09:34:54;;;;;;;2.25;1.30;;;;;;;;;;5095290;28;20039;-72
2022/02/05 09:37:20;;;;;;;3.35;1.58;;;;;;;;;;5093408;28;20141;-72
2022/02/05 09:39:46;;;;;;;2.65;1.30;;;;;;;;;;5093796;28;20073;-72
2022/02/05 09:42:12;;;;;;;2.17;1.45;;;;;;;;;;5094000;28;20020;-72
2022/02/05 09:44:38;;;;;;;2.28;1.70;;;;;;;;;;5094941;28;20008;-72
2022/02/05 09:47:03;;;;;;;4.68;1.85;;;;;;;;;;5093439;28;20063;-72
2022/02/05 09:49:30;;;;;;;3.35;1.58;;;;;;;;;;5076596;28;20027;-72
2022/02/05 09:52:23;;;;;;;2.58;1.58;;;;;;;;;;5094674;28;20025;-72
2022/02/05 09:54:43;;;;;;;5.80;1.92;;;;;;;;;;5092968;28;20089;-73
2022/02/05 09:57:08;;;;;;;2.55;1.70;;;;;;;;;;5094493;28;20082;-72
2022/02/05 09:59:39;;;;;;;3.92;1.67;;;;;;;;;;5093354;28;20462;-72
2022/02/05 10:02:17;;;;;;;4.57;2.17;;;;;;;;;;5094577;28;20102;-72
2022/02/05 10:04:52;;;;;;;3.60;1.83;;;;;;;;;;5093190;28;20024;-72
2022/02/05 10:07:17;;;;;;;2.92;1.80;;;;;;;;;;5093801;28;20028;-72
2022/02/05 10:09:52;;;;;;;3.60;2.00;;;;;;;;;;5090879;28;20489;-72
2022/02/05 10:12:18;;;;;;;2.25;0.90;;;;;;;;;;5075089;28;20051;-71
2022/02/05 10:14:49;;;;;;;3.28;1.80;;;;;;;;;;5093846;28;20024;-72
2022/02/05 10:17:14;;;;;;;5.03;2.13;;;;;;;;;;5094435;28;20359;-72
2022/02/05 10:19:46;;;;;;;3.58;2.05;;;;;;;;;;5094543;28;20019;-71
2022/02/05 10:22:12;;;;;;;4.30;1.95;;;;;;;;;;5091084;28;20101;-71
2022/02/05 10:24:51;;;;;;;3.70;2.00;;;;;;;;;;5092119;28;20050;-71
2022/02/05 10:27:37;;;;;;;4.10;2.85;;;;;;;;;;5090249;28;20122;-71
2022/02/05 10:30:08;;;;;;;3.08;2.30;;;;;;;;;;5095043;28;20385;-71
2022/02/05 10:32:34;;;;;;;;;;;;;;;;;;5092720;28;20024;-71
2022/02/05 10:35:05;;;;;;;2.15;1.92;;;;;;;;;;5092184;28;19919;-71
2022/02/05 10:37:41;;;;;;;2.85;1.80;;;;;;;;;;5091264;28;20104;-71
2022/02/05 10:40:11;;;;;;;4.05;1.80;;;;;;;;;;5091229;28;20020;-71
2022/02/05 10:43:02;;;;;;;2.60;1.90;;;;;;;;;;5093491;28;20039;-71
2022/02/05 10:45:42;;;;;;;3.33;1.85;;;;;;;;;;5092674;28;20028;-71
2022/02/05 10:48:12;;;;;;;4.70;1.98;;;;;;;;;;5093832;28;20036;-71
2022/02/05 10:50:37;;;;;;;3.22;1.88;;;;;;;;;;5093777;28;20016;-71
2022/02/05 10:53:09;;;;;;;4.28;2.20;;;;;;;;;;5093701;28;20040;-63
2022/02/05 10:58:19;;;;;;;;;;;;;;;;;;5094200;28;20380;-71
2022/02/05 11:06:16;;;;;;;5.22;1.90;;;;;;;;;;5031222;28;20056;-71
2022/02/05 11:08:41;;;;;;;5.45;1.60;;;;;;;;;;5031631;28;20032;-71
2022/02/05 11:13:58;;;;;;;3.60;2.00;;;;;;;;;;5092805;28;20078;-72
2022/02/05 11:19:08;;;;;;;4.53;1.95;;;;;;;;;;5092396;28;20053;-72
2022/02/05 11:21:33;;;;;;;4.32;2.17;;;;;;;;;;5093379;28;20059;-72
2022/02/05 11:24:01;;;;;;;3.67;1.80;;;;;;;;;;5093415;28;20024;-72
2022/02/05 11:26:26;;;;;;;3.17;1.83;;;;;;;;;;5093408;28;20065;-72
2022/02/05 11:28:56;;;;;;;2.10;1.50;;;;;;;;;;5092029;28;20412;-72
2022/02/05 11:31:43;;;;;;;2.45;1.50;;;;;;;;;;5092156;28;20021;-72
2022/02/05 11:34:13;;;;;;;2.65;1.25;;;;;;;;;;5092866;28;20055;-72
2022/02/05 11:37:05;;;;;;;4.30;1.75;;;;;;;;;;5092207;28;20020;-72
2022/02/05 11:40:03;;;;;;;4.38;2.10;;;;;;;;;;5089370;28;20040;-72
2022/02/05 11:42:30;;;;;;;4.57;2.65;;;;;;;;;;5047180;28;20100;-72
2022/02/05 11:44:59;;;;;;;7.40;3.47;;;;;;;;;;5092277;28;20031;-72
2022/02/05 11:47:26;;;;;;;5.65;3.00;;;;;;;;;;5090250;28;20024;-71
2022/02/05 11:49:51;;;;;;;3.15;2.75;;;;;;;;;;5091791;28;20530;-71
2022/02/05 11:52:35;;;;;;;4.50;3.00;;;;;;;;;;5091938;28;20122;-72
2022/02/05 11:55:02;;;;;;;5.35;2.60;;;;;;;;;;5093539;28;20024;-72
2022/02/05 11:57:44;;;;;;;4.60;2.25;;;;;;;;;;5096656;28;20023;-72
2022/02/05 12:00:20;;;;;;;4.72;2.95;;;;;;;;;;5095379;28;20055;-72
2022/02/05 12:02:56;;;;;;;5.63;2.80;;;;;;;;;;5097253;28;20039;-72
2022/02/05 12:05:28;;;;;;;4.47;2.60;;;;;;;;;;5096790;28;20032;-71
2022/02/05 12:08:12;;;;;;;5.00;2.60;;;;;;;;;;5095456;28;20028;-71
2022/02/05 12:10:38;;;;;;;2.20;1.48;;;;;;;;;;5096691;28;20401;-71
2022/02/05 12:13:23;;;;;;;4.68;2.20;;;;;;;;;;5096352;28;20136;-71
2022/02/05 12:15:48;;;;;;;2.70;1.88;;;;;;;;;;5095557;28;20036;-71
2022/02/05 12:18:19;;;;;;;2.60;1.88;;;;;;;;;;5095365;28;20032;-71
2022/02/05 12:26:09;;;;;;;3.10;1.77;;;;;;;;;;5096374;28;20040;-71
2022/02/05 12:28:42;;;;;;;3.40;1.90;;;;;;;;;;5093557;28;20039;-71
2022/02/05 12:31:36;;;;;;;2.85;1.95;;;;;;;;;;5096665;28;20043;-71
2022/02/05 12:34:08;;;;;;;3.10;1.95;;;;;;;;;;5094346;28;20046;-71
2022/02/05 12:36:42;;;;;;;3.65;2.25;;;;;;;;;;5096513;28;20067;-71
2022/02/05 12:39:09;;;;;;;2.22;1.50;;;;;;;;;;5096486;28;20021;-71
2022/02/05 12:41:35;;;;;;;4.03;1.92;;;;;;;;;;5095053;28;20015;-71
2022/02/05 12:44:03;;;;;;;2.40;1.92;;;;;;;;;;5095013;28;20024;-71
2022/02/05 12:46:32;;;;;;;3.50;1.77;;;;;;;;;;5095834;28;20446;-71
2022/02/05 12:49:04;;;;;;;3.00;1.67;;;;;;;;;;5096013;28;20040;-71
2022/02/05 12:51:33;;;;;;;2.65;1.48;;;;;;;;;;5095741;28;20417;-71
2022/02/05 12:54:11;;;;;;;2.38;1.83;;;;;;;;;;5095760;28;20111;-71
2022/02/05 12:56:39;;;;;;;2.33;1.50;;;;;;;;;;5094646;28;20051;-71
2022/02/05 12:59:08;;;;;;;1.58;1.48;;;;;;;;;;5095707;28;20016;-71
2022/02/05 13:01:48;;;;;;;2.80;1.58;;;;;;;;;;5095525;28;20024;-70
2022/02/05 13:04:18;;;;;;;0.73;0.70;;;;;;;;;;5095718;28;20032;-70
2022/02/05 13:06:43;;;;;;;2.83;1.33;;;;;;;;;;5095166;28;20449;-70
2022/02/05 13:09:23;;;;;;;4.50;1.88;;;;;;;;;;5095520;28;20047;-70
2022/02/05 13:11:53;;;;;;;2.13;1.42;;;;;;;;;;5095350;28;20034;-70
2022/02/05 13:14:18;;;;;;;2.97;1.40;;;;;;;;;;5093904;28;20044;-70
2022/02/05 13:16:46;;;;;;;1.80;1.25;;;;;;;;;;5094136;28;20550;-70
2022/02/05 13:19:25;;;;;;;4.05;1.73;;;;;;;;;;5095316;28;20028;-70
2022/02/05 13:27:29;;;;;;;4.82;2.50;;;;;;;;;;5095110;28;20426;-69
2022/02/05 13:33:33;;;;;;;0.60;0.60;;;;;;;;;;5093900;28;20028;-70
2022/02/05 13:35:24;;;;;;;3.88;2.05;;;;;;;;;;5095016;28;20115;-69
2022/02/05 13:37:54;;;;;;;4.40;2.95;;;;;;;;;;5094790;28;20052;-69
2022/02/05 13:40:22;;;;;;;2.67;2.35;;;;;;;;;;5093781;28;20156;-69
2022/02/05 13:42:50;;;;;;;3.17;2.00;;;;;;;;;;5093797;28;20020;-69
2022/02/05 13:45:32;;;;;;;2.90;1.92;;;;;;;;;;5094613;28;20031;-69
2022/02/05 13:47:58;;;;;;;2.88;2.25;;;;;;;;;;5094846;28;20032;-69
2022/02/05 13:50:25;;;;;;;2.03;1.42;;;;;;;;;;5093343;28;20364;-69
2022/02/05 13:52:52;;;;;;;2.45;1.98;;;;;;;;;;5093367;28;20089;-70
2022/02/05 13:55:18;;;;;;;2.83;2.03;;;;;;;;;;5094921;28;20027;-69
2022/02/05 13:57:52;;;;;;;2.63;2.05;;;;;;;;;;5093480;28;20036;-70
2022/02/05 14:00:18;;;;;;;1.30;1.15;;;;;;;;;;5094543;28;20028;-69
2022/02/05 14:02:55;;;;;;;2.22;1.40;;;;;;;;;;5094553;28;20024;-70
2022/02/05 14:05:21;;;;;;;4.28;1.55;;;;;;;;;;5094776;28;20490;-69
2022/02/05 14:07:47;;;;;;;2.53;2.20;;;;;;;;;;5094545;28;20111;-69
2022/02/05 14:10:14;;;;;;;2.97;1.83;;;;;;;;;;5094418;28;20034;-75
2022/02/05 14:12:52;;;;;;;2.70;2.17;;;;;;;;;;5093667;28;20090;-75
2022/02/05 14:15:18;;;;;;;2.78;1.85;;;;;;;;;;5092382;28;20032;-74
2022/02/05 14:17:46;;;;;;;5.13;2.65;;;;;;;;;;5093295;28;20021;-75
2022/02/05 14:20:14;;;;;;;5.15;3.17;;;;;;;;;;5092772;28;20030;-75
2022/02/05 14:22:43;;;;;;;5.43;2.75;;;;;;;;;;5074029;28;20061;-75
2022/02/05 14:25:14;;;;;;;5.65;3.17;;;;;;;;;;5093530;28;20394;-75
2022/02/05 14:27:58;;;;;;;3.40;2.47;;;;;;;;;;5093665;28;20037;-75
2022/02/05 14:30:27;;;;;;;3.75;2.25;;;;;;;;;;5092812;28;20470;-75
2022/02/05 14:32:53;;;;;;;3.03;2.30;;;;;;;;;;5093763;28;20032;-74
2022/02/05 14:40:46;;;;;;;3.53;1.95;;;;;;;;;;5093900;28;20466;-75
2022/02/05 14:43:12;;;;;;;3.90;1.98;;;;;;;;;;5093654;28;20032;-75
2022/02/05 14:45:37;;;;;;;2.42;1.80;;;;;;;;;;5092304;28;20020;-75
2022/02/05 14:48:03;;;;;;;3.80;2.08;;;;;;;;;;5093729;28;20081;-76
2022/02/05 14:50:28;;;;;;;4.35;2.35;;;;;;;;;;5093663;28;20107;-75
2022/02/05 14:52:54;;;;;;;3.97;2.17;;;;;;;;;;5093465;28;20027;-75
2022/02/05 14:55:19;;;;;;;3.17;2.22;;;;;;;;;;5093747;28;20024;-75
2022/02/05 14:57:45;;;;;;;4.22;2.55;;;;;;;;;;5093509;28;20024;-75
2022/02/05 15:00:12;;;;;;;3.83;2.70;;;;;;;;;;5092167;28;20027;-75
2022/02/05 15:02:38;;;;;;;3.08;2.20;;;;;;;;;;5093306;28;20076;-75
2022/02/05 15:05:10;;;;;;;2.90;2.55;;;;;;;;;;5093428;28;20020;-75
2022/02/05 15:07:37;;;;;;;3.08;2.60;;;;;;;;;;5093511;28;20039;-75
2022/02/05 15:10:02;;;;;;;2.40;1.90;;;;;;;;;;5092201;28;20020;-75
2022/02/05 15:12:28;;;;;;;5.10;2.45;;;;;;;;;;5091537;28;20044;-70
2022/02/05 15:14:53;;;;;;;2.85;1.58;;;;;;;;;;5092278;28;20386;-70
2022/02/05 15:17:20;;;;;;;3.65;2.50;;;;;;;;;;5093250;28;20063;-70
2022/02/05 15:19:45;;;;;;;2.63;2.00;;;;;;;;;;5093101;28;20027;-70
2022/02/05 15:22:11;;;;;;;2.95;2.03;;;;;;;;;;5093110;28;20024;-70
2022/02/05 15:24:36;;;;;;;4.20;2.33;;;;;;;;;;5093231;28;20466;-70
2022/02/05 15:27:02;;;;;;;3.63;2.45;;;;;;;;;;5093200;28;20066;-70
2022/02/05 15:29:27;;;;;;;2.75;2.42;;;;;;;;;;5093737;28;20423;-70
2022/02/05 15:31:53;;;;;;;3.25;2.47;;;;;;;;;;5097371;28;20077;-70
2022/02/05 15:34:18;;;;;;;4.68;2.85;;;;;;;;;;5096653;28;20020;-70
2022/02/05 15:36:53;;;;;;;3.63;2.78;;;;;;;;;;5096225;28;20385;-70
2022/02/05 15:45:02;;;;;;;5.88;3.10;;;;;;;;;;5097082;28;20040;-70
2022/02/05 15:47:28;;;;;;;4.90;3.47;;;;;;;;;;5096985;28;20104;-70
2022/02/05 15:49:53;;;;;;;6.45;4.05;;;;;;;;;;5095754;28;20441;-70
2022/02/05 15:52:20;;;;;;;7.07;4.28;;;;;;;;;;5096785;28;20370;-70
2022/02/05 15:54:45;;;;;;;5.10;3.60;;;;;;;;;;5095554;28;20386;-70
2022/02/05 16:02:20;;;;;;;5.30;3.78;;;;;;;;;;5096891;28;20031;-70
2022/02/05 16:04:46;;;;;;;6.25;3.63;;;;;;;;;;5095628;28;20016;-70
2022/02/05 16:07:11;;;;;;;7.18;4.07;;;;;;;;;;5096651;28;20020;-70
2022/02/05 16:09:37;;;;;;;5.35;3.95;;;;;;;;;;5095498;28;20153;-70
2022/02/05 16:12:02;;;;;;;8.00;4.65;;;;;;;;;;5095999;28;20028;-70
2022/02/05 16:14:28;;;;;;;7.55;5.32;;;;;;;;;;5096504;28;20046;-70
2022/02/05 16:16:53;;;;;;;8.43;5.10;;;;;;;;;;5096460;28;20027;-70
2022/02/05 16:19:19;;;;;;;8.90;5.07;;;;;;;;;;5096525;28;20374;-70
2022/02/05 16:21:44;;;;;;;9.05;5.30;;;;;;;;;;5096456;28;20024;-70
2022/02/05 16:24:10;;;;;;;10.35;5.10;;;;;;;;;;5096271;28;20031;-70
2022/02/05 16:26:36;;;;;;;9.75;5.22;;;;;;;;;;5094800;28;20378;-70
2022/02/05 16:29:05;;;;;;;9.80;5.35;;;;;;;;;;5078152;28;20062;-70
2022/02/05 16:31:31;;;;;;;9.38;5.07;;;;;;;;;;5096107;28;20044;-70
2022/02/05 16:34:04;;;;;;;10.02;5.25;;;;;;;;;;5096119;28;20027;-70
2022/02/05 16:36:31;;;;;;;7.75;4.68;;;;;;;;;;5096139;28;20405;-70
2022/02/05 16:38:59;;;;;;;11.30;6.00;;;;;;;;;;5096123;28;20017;-70
2022/02/05 16:41:25;;;;;;;9.13;4.97;;;;;;;;;;5095277;28;20036;-70
2022/02/05 16:43:50;;;;;;;7.15;4.78;;;;;;;;;;5095884;28;20031;-70
2022/02/05 16:46:21;;;;;;;6.07;4.78;;;;;;;;;;5094692;28;20453;-70
2022/02/05 16:48:46;;;;;;;;;;;;;;;;;;5094910;28;20048;-70
2022/02/05 16:51:14;;;;;;;14.57;9.13;;;;;;;;;;5095979;28;20273;-70
2022/02/05 16:53:42;;;;;;;9.63;5.57;;;;;;;;;;5095676;28;20394;-70
2022/02/05 16:56:07;;;;;;;9.55;6.38;;;;;;;;;;5095803;28;20024;-70
2022/02/05 16:58:33;;;;;;;15.80;8.27;;;;;;;;;;5094500;28;20051;-70
2022/02/05 17:00:58;;;;;;;8.00;5.13;;;;;;;;;;5094442;28;20085;-70
2022/02/05 17:03:24;;;;;;;12.23;7.05;;;;;;;;;;5095590;28;20024;-70
2022/02/05 17:05:49;;;;;;;9.20;5.35;;;;;;;;;;5095590;28;20024;-70
2022/02/05 17:08:16;;;;;;;11.55;6.50;;;;;;;;;;5094134;28;20031;-70
2022/02/05 17:10:43;;;;;;;9.43;5.63;;;;;;;;;;5095426;28;20111;-70
2022/02/05 17:13:08;;;;;;;10.77;5.88;;;;;;;;;;5094902;28;20040;-70
2022/02/05 17:15:34;;;;;;;12.45;6.18;;;;;;;;;;5095376;28;20032;-70
2022/02/05 17:18:25;;;;;;;9.30;6.05;;;;;;;;;;5095479;28;20047;-70
2022/02/05 17:20:52;;;;;;;14.18;7.43;;;;;;;;;;5095279;28;20040;-70
2022/02/05 17:23:20;;;;;;;12.98;7.10;;;;;;;;;;5094124;28;20032;-70
2022/02/05 17:25:46;;;;;;;8.55;4.88;;;;;;;;;;5077192;28;20020;-70
2022/02/05 17:28:11;;;;;;;9.90;5.65;;;;;;;;;;5095155;28;20036;-70
2022/02/05 17:30:36;;;;;;;10.02;5.18;;;;;;;;;;5093871;28;20016;-70
2022/02/05 17:33:06;;;;;;;9.13;5.43;;;;;;;;;;5093627;28;20541;-70
2022/02/05 17:35:36;;;;;;;12.20;6.00;;;;;;;;;;5093837;28;20016;-70
2022/02/05 17:38:02;;;;;;;10.43;5.22;;;;;;;;;;5093600;28;20077;-70
2022/02/05 17:40:28;;;;;;;9.18;6.00;;;;;;;;;;5094750;28;20382;-70
2022/02/05 17:42:53;;;;;;;10.50;5.75;;;;;;;;;;5093638;28;20036;-70
2022/02/05 17:45:19;;;;;;;11.57;4.88;;;;;;;;;;5095159;28;20077;-70
2022/02/05 17:47:44;;;;;;;10.80;6.03;;;;;;;;;;5093533;28;20478;-70
2022/02/05 17:50:10;;;;;;;9.98;5.80;;;;;;;;;;5093615;28;20099;-70